sensor_id;sensor_type;location;lat;lon;timestamp;P1;durP1;ratioP1;P2;durP2;ratioP2
24557;SDS011;12726;49.148;8.582;2023-05-09T00:02:06;18.30;;;13.40;;
24557;SDS011;12726;49.148;8.582;2023-05-09T00:04:51;16.33;;;11.90;;
24557;SDS011;12726;49.148;8.582;2023-05-09T00:07:37;16.27;;;13.20;;
24557;SDS011;12726;49.148;8.582;2023-05-09T00:10:22;15.40;;;12.18;;
24557;SDS011;12726;49.148;8.582;2023-05-09T00:13:08;15.30;;;12.52;;
24557;SDS011;12726;49.148;8.582;2023-05-09T00:15:55;16.67;;;13.13;;
24557;SDS011;12726;49.148;8.582;2023-05-09T00:18:41;15.05;;;11.75;;
24557;SDS011;12726;49.148;8.582;2023-05-09T00:21:27;14.52;;;12.20;;
24557;SDS011;12726;49.148;8.582;2023-05-09T00:24:12;11.93;;;10.02;;
24557;SDS011;12726;49.148;8.582;2023-05-09T00:26:58;15.85;;;11.32;;
24557;SDS011;12726;49.148;8.582;2023-05-09T00:29:43;12.82;;;10.98;;
24557;SDS011;12726;49.148;8.582;2023-05-09T00:32:30;15.55;;;12.73;;
24557;SDS011;12726;49.148;8.582;2023-05-09T00:35:16;14.23;;;10.95;;
24557;SDS011;12726;49.148;8.582;2023-05-09T00:38:02;12.95;;;11.23;;
24557;SDS011;12726;49.148;8.582;2023-05-09T00:40:47;13.93;;;11.38;;
24557;SDS011;12726;49.148;8.582;2023-05-09T00:43:33;14.32;;;12.20;;
24557;SDS011;12726;49.148;8.582;2023-05-09T00:46:18;15.20;;;10.75;;
24557;SDS011;12726;49.148;8.582;2023-05-09T00:49:04;13.25;;;10.70;;
24557;SDS011;12726;49.148;8.582;2023-05-09T00:51:50;14.70;;;10.25;;
24557;SDS011;12726;49.148;8.582;2023-05-09T00:54:37;14.90;;;11.60;;
24557;SDS011;12726;49.148;8.582;2023-05-09T00:57:23;14.77;;;11.35;;
24557;SDS011;12726;49.148;8.582;2023-05-09T01:00:08;15.00;;;11.65;;
24557;SDS011;12726;49.148;8.582;2023-05-09T01:02:55;18.75;;;13.70;;
24557;SDS011;12726;49.148;8.582;2023-05-09T01:05:46;16.30;;;12.43;;
24557;SDS011;12726;49.148;8.582;2023-05-09T01:08:42;15.73;;;12.45;;
24557;SDS011;12726;49.148;8.582;2023-05-09T01:11:31;18.38;;;12.95;;
24557;SDS011;12726;49.148;8.582;2023-05-09T01:14:23;19.20;;;13.00;;
24557;SDS011;12726;49.148;8.582;2023-05-09T01:17:15;15.45;;;12.77;;
24557;SDS011;12726;49.148;8.582;2023-05-09T01:20:11;16.73;;;12.48;;
24557;SDS011;12726;49.148;8.582;2023-05-09T01:23:08;19.02;;;13.27;;
24557;SDS011;12726;49.148;8.582;2023-05-09T01:26:08;15.20;;;12.50;;
24557;SDS011;12726;49.148;8.582;2023-05-09T01:32:18;13.98;;;11.32;;
24557;SDS011;12726;49.148;8.582;2023-05-09T01:35:08;15.57;;;11.75;;
24557;SDS011;12726;49.148;8.582;2023-05-09T01:37:57;15.23;;;11.52;;
24557;SDS011;12726;49.148;8.582;2023-05-09T01:40:43;14.70;;;11.48;;
24557;SDS011;12726;49.148;8.582;2023-05-09T01:43:31;14.10;;;11.50;;
24557;SDS011;12726;49.148;8.582;2023-05-09T01:46:19;15.50;;;11.48;;
24557;SDS011;12726;49.148;8.582;2023-05-09T01:49:06;13.38;;;10.65;;
24557;SDS011;12726;49.148;8.582;2023-05-09T01:51:52;13.75;;;11.07;;
24557;SDS011;12726;49.148;8.582;2023-05-09T01:54:39;17.50;;;12.88;;
24557;SDS011;12726;49.148;8.582;2023-05-09T01:57:26;14.57;;;11.43;;
24557;SDS011;12726;49.148;8.582;2023-05-09T02:00:13;14.02;;;11.82;;
24557;SDS011;12726;49.148;8.582;2023-05-09T02:03:01;15.40;;;11.63;;
24557;SDS011;12726;49.148;8.582;2023-05-09T02:05:47;11.95;;;10.50;;
24557;SDS011;12726;49.148;8.582;2023-05-09T02:08:34;17.55;;;12.68;;
24557;SDS011;12726;49.148;8.582;2023-05-09T02:11:20;17.48;;;11.95;;
24557;SDS011;12726;49.148;8.582;2023-05-09T02:14:05;18.65;;;12.38;;
24557;SDS011;12726;49.148;8.582;2023-05-09T02:16:50;17.33;;;12.55;;
24557;SDS011;12726;49.148;8.582;2023-05-09T02:19:37;14.82;;;11.43;;
24557;SDS011;12726;49.148;8.582;2023-05-09T02:22:22;16.23;;;12.25;;
24557;SDS011;12726;49.148;8.582;2023-05-09T02:25:09;16.98;;;11.35;;
24557;SDS011;12726;49.148;8.582;2023-05-09T02:27:57;15.60;;;11.77;;
24557;SDS011;12726;49.148;8.582;2023-05-09T02:30:44;13.43;;;11.02;;
24557;SDS011;12726;49.148;8.582;2023-05-09T02:33:32;17.52;;;11.30;;
24557;SDS011;12726;49.148;8.582;2023-05-09T02:36:21;13.93;;;11.02;;
24557;SDS011;12726;49.148;8.582;2023-05-09T02:39:07;14.00;;;9.63;;
24557;SDS011;12726;49.148;8.582;2023-05-09T02:41:54;13.73;;;11.40;;
24557;SDS011;12726;49.148;8.582;2023-05-09T02:44:39;14.10;;;10.70;;
24557;SDS011;12726;49.148;8.582;2023-05-09T02:47:25;14.20;;;10.00;;
24557;SDS011;12726;49.148;8.582;2023-05-09T02:50:10;16.13;;;12.18;;
24557;SDS011;12726;49.148;8.582;2023-05-09T02:52:57;13.55;;;10.80;;
24557;SDS011;12726;49.148;8.582;2023-05-09T02:55:43;15.32;;;11.10;;
24557;SDS011;12726;49.148;8.582;2023-05-09T02:58:28;14.00;;;11.55;;
24557;SDS011;12726;49.148;8.582;2023-05-09T03:01:14;14.48;;;10.88;;
24557;SDS011;12726;49.148;8.582;2023-05-09T03:03:59;15.63;;;10.88;;
24557;SDS011;12726;49.148;8.582;2023-05-09T03:06:44;13.70;;;10.38;;
24557;SDS011;12726;49.148;8.582;2023-05-09T03:09:31;13.35;;;10.68;;
24557;SDS011;12726;49.148;8.582;2023-05-09T03:12:16;14.70;;;10.70;;
24557;SDS011;12726;49.148;8.582;2023-05-09T03:15:02;12.80;;;11.02;;
24557;SDS011;12726;49.148;8.582;2023-05-09T03:17:47;14.23;;;10.45;;
24557;SDS011;12726;49.148;8.582;2023-05-09T03:20:32;13.82;;;10.07;;
24557;SDS011;12726;49.148;8.582;2023-05-09T03:23:18;14.02;;;10.43;;
24557;SDS011;12726;49.148;8.582;2023-05-09T03:26:04;14.98;;;10.85;;
24557;SDS011;12726;49.148;8.582;2023-05-09T03:28:50;14.70;;;10.70;;
24557;SDS011;12726;49.148;8.582;2023-05-09T03:31:35;16.65;;;10.80;;
24557;SDS011;12726;49.148;8.582;2023-05-09T03:34:20;12.75;;;10.38;;
24557;SDS011;12726;49.148;8.582;2023-05-09T03:37:06;13.98;;;9.52;;
24557;SDS011;12726;49.148;8.582;2023-05-09T03:39:51;13.52;;;10.77;;
24557;SDS011;12726;49.148;8.582;2023-05-09T03:42:38;11.90;;;10.15;;
24557;SDS011;12726;49.148;8.582;2023-05-09T03:45:23;14.30;;;10.07;;
24557;SDS011;12726;49.148;8.582;2023-05-09T03:48:09;16.02;;;11.27;;
24557;SDS011;12726;49.148;8.582;2023-05-09T03:50:54;12.93;;;10.02;;
24557;SDS011;12726;49.148;8.582;2023-05-09T03:53:40;16.13;;;11.38;;
24557;SDS011;12726;49.148;8.582;2023-05-09T03:56:25;12.90;;;10.32;;
24557;SDS011;12726;49.148;8.582;2023-05-09T03:59:12;13.77;;;9.90;;
24557;SDS011;12726;49.148;8.582;2023-05-09T04:01:57;10.75;;;8.75;;
24557;SDS011;12726;49.148;8.582;2023-05-09T04:04:42;14.25;;;10.95;;
24557;SDS011;12726;49.148;8.582;2023-05-09T04:07:29;14.10;;;11.18;;
24557;SDS011;12726;49.148;8.582;2023-05-09T04:10:15;13.98;;;10.02;;
24557;SDS011;12726;49.148;8.582;2023-05-09T04:13:00;12.90;;;10.07;;
24557;SDS011;12726;49.148;8.582;2023-05-09T04:15:47;13.60;;;10.73;;
24557;SDS011;12726;49.148;8.582;2023-05-09T04:18:32;13.63;;;10.55;;
24557;SDS011;12726;49.148;8.582;2023-05-09T04:21:18;15.88;;;10.77;;
24557;SDS011;12726;49.148;8.582;2023-05-09T04:24:03;12.27;;;10.18;;
24557;SDS011;12726;49.148;8.582;2023-05-09T04:26:49;15.43;;;9.95;;
24557;SDS011;12726;49.148;8.582;2023-05-09T04:29:35;12.77;;;9.70;;
24557;SDS011;12726;49.148;8.582;2023-05-09T04:32:22;13.35;;;10.40;;
24557;SDS011;12726;49.148;8.582;2023-05-09T04:35:07;14.65;;;10.27;;
24557;SDS011;12726;49.148;8.582;2023-05-09T04:37:53;12.52;;;9.75;;
24557;SDS011;12726;49.148;8.582;2023-05-09T04:40:39;14.60;;;10.38;;
24557;SDS011;12726;49.148;8.582;2023-05-09T04:43:24;11.30;;;9.52;;
24557;SDS011;12726;49.148;8.582;2023-05-09T04:46:10;12.65;;;10.20;;
24557;SDS011;12726;49.148;8.582;2023-05-09T04:48:57;13.73;;;10.98;;
24557;SDS011;12726;49.148;8.582;2023-05-09T04:51:43;12.45;;;10.93;;
24557;SDS011;12726;49.148;8.582;2023-05-09T04:54:28;14.30;;;10.07;;
24557;SDS011;12726;49.148;8.582;2023-05-09T04:57:13;11.73;;;9.55;;
24557;SDS011;12726;49.148;8.582;2023-05-09T04:59:59;17.02;;;9.32;;
24557;SDS011;12726;49.148;8.582;2023-05-09T05:02:44;15.02;;;10.00;;
24557;SDS011;12726;49.148;8.582;2023-05-09T05:05:31;13.07;;;10.30;;
24557;SDS011;12726;49.148;8.582;2023-05-09T05:08:16;11.88;;;9.32;;
24557;SDS011;12726;49.148;8.582;2023-05-09T05:11:02;13.80;;;9.68;;
24557;SDS011;12726;49.148;8.582;2023-05-09T05:13:47;12.25;;;9.63;;
24557;SDS011;12726;49.148;8.582;2023-05-09T05:16:32;13.48;;;9.77;;
24557;SDS011;12726;49.148;8.582;2023-05-09T05:19:18;15.63;;;11.80;;
24557;SDS011;12726;49.148;8.582;2023-05-09T05:22:04;13.43;;;10.07;;
24557;SDS011;12726;49.148;8.582;2023-05-09T05:24:50;17.13;;;11.05;;
24557;SDS011;12726;49.148;8.582;2023-05-09T05:27:35;13.75;;;10.63;;
24557;SDS011;12726;49.148;8.582;2023-05-09T05:30:21;15.68;;;10.40;;
24557;SDS011;12726;49.148;8.582;2023-05-09T05:33:06;14.18;;;11.40;;
24557;SDS011;12726;49.148;8.582;2023-05-09T05:35:52;14.40;;;10.50;;
24557;SDS011;12726;49.148;8.582;2023-05-09T05:38:38;15.38;;;10.65;;
24557;SDS011;12726;49.148;8.582;2023-05-09T05:41:24;14.48;;;9.98;;
24557;SDS011;12726;49.148;8.582;2023-05-09T05:44:10;15.05;;;10.48;;
24557;SDS011;12726;49.148;8.582;2023-05-09T05:46:55;13.93;;;10.82;;
24557;SDS011;12726;49.148;8.582;2023-05-09T05:49:40;12.73;;;10.27;;
24557;SDS011;12726;49.148;8.582;2023-05-09T05:52:26;12.50;;;10.38;;
24557;SDS011;12726;49.148;8.582;2023-05-09T05:55:12;13.60;;;10.15;;
24557;SDS011;12726;49.148;8.582;2023-05-09T05:57:58;12.40;;;9.65;;
24557;SDS011;12726;49.148;8.582;2023-05-09T06:00:43;15.43;;;10.35;;
24557;SDS011;12726;49.148;8.582;2023-05-09T06:03:28;14.23;;;10.60;;
24557;SDS011;12726;49.148;8.582;2023-05-09T06:06:14;14.07;;;10.27;;
24557;SDS011;12726;49.148;8.582;2023-05-09T06:09:00;12.50;;;9.90;;
24557;SDS011;12726;49.148;8.582;2023-05-09T06:11:46;15.35;;;11.35;;
24557;SDS011;12726;49.148;8.582;2023-05-09T06:14:32;14.07;;;10.98;;
24557;SDS011;12726;49.148;8.582;2023-05-09T06:17:17;18.50;;;11.35;;
24557;SDS011;12726;49.148;8.582;2023-05-09T06:20:03;14.40;;;11.00;;
24557;SDS011;12726;49.148;8.582;2023-05-09T06:22:49;15.05;;;10.65;;
24557;SDS011;12726;49.148;8.582;2023-05-09T06:25:35;15.32;;;11.63;;
24557;SDS011;12726;49.148;8.582;2023-05-09T06:28:22;15.80;;;11.70;;
24557;SDS011;12726;49.148;8.582;2023-05-09T06:31:07;15.77;;;11.57;;
24557;SDS011;12726;49.148;8.582;2023-05-09T06:33:52;16.02;;;12.02;;
24557;SDS011;12726;49.148;8.582;2023-05-09T06:36:38;19.15;;;12.93;;
24557;SDS011;12726;49.148;8.582;2023-05-09T06:39:23;19.60;;;12.77;;
24557;SDS011;12726;49.148;8.582;2023-05-09T06:42:08;30.60;;;16.58;;
24557;SDS011;12726;49.148;8.582;2023-05-09T06:44:55;21.40;;;14.02;;
24557;SDS011;12726;49.148;8.582;2023-05-09T06:47:40;20.95;;;13.80;;
24557;SDS011;12726;49.148;8.582;2023-05-09T06:50:25;20.63;;;13.80;;
24557;SDS011;12726;49.148;8.582;2023-05-09T06:53:11;24.15;;;14.68;;
24557;SDS011;12726;49.148;8.582;2023-05-09T06:55:56;57.08;;;22.95;;
24557;SDS011;12726;49.148;8.582;2023-05-09T06:58:42;24.35;;;16.10;;
24557;SDS011;12726;49.148;8.582;2023-05-09T07:01:28;64.75;;;23.58;;
24557;SDS011;12726;49.148;8.582;2023-05-09T07:04:14;31.92;;;15.65;;
24557;SDS011;12726;49.148;8.582;2023-05-09T07:06:59;18.23;;;13.85;;
24557;SDS011;12726;49.148;8.582;2023-05-09T07:09:44;20.88;;;14.30;;
24557;SDS011;12726;49.148;8.582;2023-05-09T07:12:30;19.27;;;13.20;;
24557;SDS011;12726;49.148;8.582;2023-05-09T07:15:15;20.65;;;14.00;;
24557;SDS011;12726;49.148;8.582;2023-05-09T07:18:02;18.45;;;12.98;;
24557;SDS011;12726;49.148;8.582;2023-05-09T07:20:47;20.08;;;14.40;;
24557;SDS011;12726;49.148;8.582;2023-05-09T07:23:32;20.90;;;15.18;;
24557;SDS011;12726;49.148;8.582;2023-05-09T07:26:18;21.50;;;15.38;;
24557;SDS011;12726;49.148;8.582;2023-05-09T07:29:04;24.00;;;16.98;;
24557;SDS011;12726;49.148;8.582;2023-05-09T07:31:49;21.35;;;16.35;;
24557;SDS011;12726;49.148;8.582;2023-05-09T07:34:36;20.38;;;15.07;;
24557;SDS011;12726;49.148;8.582;2023-05-09T07:37:21;19.75;;;15.18;;
24557;SDS011;12726;49.148;8.582;2023-05-09T07:40:07;23.42;;;17.10;;
24557;SDS011;12726;49.148;8.582;2023-05-09T07:42:53;22.52;;;15.65;;
24557;SDS011;12726;49.148;8.582;2023-05-09T07:45:39;23.27;;;16.30;;
24557;SDS011;12726;49.148;8.582;2023-05-09T07:48:24;23.30;;;14.52;;
24557;SDS011;12726;49.148;8.582;2023-05-09T07:51:11;22.58;;;15.90;;
24557;SDS011;12726;49.148;8.582;2023-05-09T07:53:56;22.25;;;15.23;;
24557;SDS011;12726;49.148;8.582;2023-05-09T07:56:42;33.42;;;18.73;;
24557;SDS011;12726;49.148;8.582;2023-05-09T07:59:27;22.17;;;15.70;;
24557;SDS011;12726;49.148;8.582;2023-05-09T08:02:12;20.98;;;15.32;;
24557;SDS011;12726;49.148;8.582;2023-05-09T08:04:58;20.17;;;14.82;;
24557;SDS011;12726;49.148;8.582;2023-05-09T08:07:45;25.67;;;15.15;;
24557;SDS011;12726;49.148;8.582;2023-05-09T08:10:30;18.95;;;14.57;;
24557;SDS011;12726;49.148;8.582;2023-05-09T08:13:16;20.25;;;14.80;;
24557;SDS011;12726;49.148;8.582;2023-05-09T08:16:01;20.63;;;14.10;;
24557;SDS011;12726;49.148;8.582;2023-05-09T08:18:47;18.73;;;13.75;;
24557;SDS011;12726;49.148;8.582;2023-05-09T08:21:32;18.67;;;14.00;;
24557;SDS011;12726;49.148;8.582;2023-05-09T08:24:18;19.13;;;13.57;;
24557;SDS011;12726;49.148;8.582;2023-05-09T08:27:04;17.05;;;13.25;;
24557;SDS011;12726;49.148;8.582;2023-05-09T08:29:49;16.08;;;12.32;;
24557;SDS011;12726;49.148;8.582;2023-05-09T08:32:35;18.90;;;13.65;;
24557;SDS011;12726;49.148;8.582;2023-05-09T08:35:20;16.33;;;12.43;;
24557;SDS011;12726;49.148;8.582;2023-05-09T08:38:05;15.02;;;11.95;;
24557;SDS011;12726;49.148;8.582;2023-05-09T08:40:52;16.13;;;12.52;;
24557;SDS011;12726;49.148;8.582;2023-05-09T08:43:43;16.52;;;13.27;;
24557;SDS011;12726;49.148;8.582;2023-05-09T08:46:29;16.33;;;12.25;;
24557;SDS011;12726;49.148;8.582;2023-05-09T08:49:17;16.02;;;12.60;;
24557;SDS011;12726;49.148;8.582;2023-05-09T08:52:04;16.90;;;12.85;;
24557;SDS011;12726;49.148;8.582;2023-05-09T08:54:50;14.48;;;11.80;;
24557;SDS011;12726;49.148;8.582;2023-05-09T08:57:37;15.27;;;11.95;;
24557;SDS011;12726;49.148;8.582;2023-05-09T09:00:23;14.50;;;11.68;;
24557;SDS011;12726;49.148;8.582;2023-05-09T09:03:10;14.50;;;11.10;;
24557;SDS011;12726;49.148;8.582;2023-05-09T09:05:55;16.52;;;12.48;;
24557;SDS011;12726;49.148;8.582;2023-05-09T09:08:42;14.32;;;11.25;;
24557;SDS011;12726;49.148;8.582;2023-05-09T09:11:29;15.77;;;12.30;;
24557;SDS011;12726;49.148;8.582;2023-05-09T09:14:18;16.05;;;12.05;;
24557;SDS011;12726;49.148;8.582;2023-05-09T09:17:07;14.50;;;11.70;;
24557;SDS011;12726;49.148;8.582;2023-05-09T09:19:59;15.18;;;11.63;;
24557;SDS011;12726;49.148;8.582;2023-05-09T09:22:48;13.88;;;11.10;;
24557;SDS011;12726;49.148;8.582;2023-05-09T09:25:39;13.98;;;10.68;;
24557;SDS011;12726;49.148;8.582;2023-05-09T09:28:24;16.98;;;11.82;;
24557;SDS011;12726;49.148;8.582;2023-05-09T09:31:20;13.05;;;11.52;;
24557;SDS011;12726;49.148;8.582;2023-05-09T09:34:07;14.25;;;10.80;;
24557;SDS011;12726;49.148;8.582;2023-05-09T09:36:52;12.82;;;10.35;;
24557;SDS011;12726;49.148;8.582;2023-05-09T09:39:37;13.82;;;11.57;;
24557;SDS011;12726;49.148;8.582;2023-05-09T09:42:40;12.10;;;10.80;;
24557;SDS011;12726;49.148;8.582;2023-05-09T09:45:26;11.35;;;9.52;;
24557;SDS011;12726;49.148;8.582;2023-05-09T09:48:13;10.53;;;9.43;;
24557;SDS011;12726;49.148;8.582;2023-05-09T09:51:01;11.57;;;9.57;;
24557;SDS011;12726;49.148;8.582;2023-05-09T09:53:48;14.77;;;10.93;;
24557;SDS011;12726;49.148;8.582;2023-05-09T09:56:38;12.70;;;10.48;;
24557;SDS011;12726;49.148;8.582;2023-05-09T09:59:24;11.25;;;9.88;;
24557;SDS011;12726;49.148;8.582;2023-05-09T10:02:10;14.18;;;10.25;;
24557;SDS011;12726;49.148;8.582;2023-05-09T10:04:58;12.00;;;9.80;;
24557;SDS011;12726;49.148;8.582;2023-05-09T10:07:50;11.38;;;9.40;;
24557;SDS011;12726;49.148;8.582;2023-05-09T10:10:38;11.65;;;10.32;;
24557;SDS011;12726;49.148;8.582;2023-05-09T10:13:23;13.27;;;10.95;;
24557;SDS011;12726;49.148;8.582;2023-05-09T10:16:10;14.18;;;11.15;;
24557;SDS011;12726;49.148;8.582;2023-05-09T10:18:56;12.48;;;11.02;;
24557;SDS011;12726;49.148;8.582;2023-05-09T10:21:42;14.68;;;12.30;;
24557;SDS011;12726;49.148;8.582;2023-05-09T10:24:30;15.07;;;11.40;;
24557;SDS011;12726;49.148;8.582;2023-05-09T10:27:20;16.30;;;13.02;;
24557;SDS011;12726;49.148;8.582;2023-05-09T10:30:12;15.80;;;12.43;;
24557;SDS011;12726;49.148;8.582;2023-05-09T10:33:02;16.42;;;12.32;;
24557;SDS011;12726;49.148;8.582;2023-05-09T10:35:48;19.00;;;13.07;;
24557;SDS011;12726;49.148;8.582;2023-05-09T10:38:36;20.50;;;15.15;;
24557;SDS011;12726;49.148;8.582;2023-05-09T10:41:23;18.95;;;14.85;;
24557;SDS011;12726;49.148;8.582;2023-05-09T10:44:09;19.42;;;13.25;;
24557;SDS011;12726;49.148;8.582;2023-05-09T10:46:54;21.27;;;16.27;;
24557;SDS011;12726;49.148;8.582;2023-05-09T10:49:40;18.20;;;14.52;;
24557;SDS011;12726;49.148;8.582;2023-05-09T10:52:30;19.45;;;14.43;;
24557;SDS011;12726;49.148;8.582;2023-05-09T10:55:17;18.92;;;14.50;;
24557;SDS011;12726;49.148;8.582;2023-05-09T10:58:16;17.92;;;14.48;;
24557;SDS011;12726;49.148;8.582;2023-05-09T11:01:03;19.77;;;15.82;;
24557;SDS011;12726;49.148;8.582;2023-05-09T11:03:52;17.50;;;13.38;;
24557;SDS011;12726;49.148;8.582;2023-05-09T11:06:40;18.40;;;14.70;;
24557;SDS011;12726;49.148;8.582;2023-05-09T11:09:31;15.05;;;11.50;;
24557;SDS011;12726;49.148;8.582;2023-05-09T11:12:22;15.65;;;13.02;;
24557;SDS011;12726;49.148;8.582;2023-05-09T11:15:08;17.17;;;13.13;;
24557;SDS011;12726;49.148;8.582;2023-05-09T11:18:04;14.23;;;12.23;;
24557;SDS011;12726;49.148;8.582;2023-05-09T11:20:51;14.57;;;12.38;;
24557;SDS011;12726;49.148;8.582;2023-05-09T11:23:36;14.38;;;11.48;;
24557;SDS011;12726;49.148;8.582;2023-05-09T11:26:22;13.32;;;10.95;;
24557;SDS011;12726;49.148;8.582;2023-05-09T11:29:14;13.20;;;11.43;;
24557;SDS011;12726;49.148;8.582;2023-05-09T11:32:06;12.25;;;10.88;;
24557;SDS011;12726;49.148;8.582;2023-05-09T11:34:51;13.07;;;10.30;;
24557;SDS011;12726;49.148;8.582;2023-05-09T11:37:38;12.00;;;10.52;;
24557;SDS011;12726;49.148;8.582;2023-05-09T11:40:29;15.68;;;12.63;;
24557;SDS011;12726;49.148;8.582;2023-05-09T11:43:15;14.60;;;12.93;;
24557;SDS011;12726;49.148;8.582;2023-05-09T11:46:04;16.35;;;12.75;;
24557;SDS011;12726;49.148;8.582;2023-05-09T11:48:50;18.40;;;14.98;;
24557;SDS011;12726;49.148;8.582;2023-05-09T11:51:35;18.08;;;14.43;;
24557;SDS011;12726;49.148;8.582;2023-05-09T11:54:22;13.98;;;11.25;;
24557;SDS011;12726;49.148;8.582;2023-05-09T11:57:07;15.10;;;11.63;;
24557;SDS011;12726;49.148;8.582;2023-05-09T11:59:53;14.77;;;12.32;;
24557;SDS011;12726;49.148;8.582;2023-05-09T12:02:42;14.77;;;11.57;;
24557;SDS011;12726;49.148;8.582;2023-05-09T12:05:28;12.20;;;10.77;;
24557;SDS011;12726;49.148;8.582;2023-05-09T12:08:13;8.45;;;7.05;;
24557;SDS011;12726;49.148;8.582;2023-05-09T12:11:06;7.25;;;6.53;;
24557;SDS011;12726;49.148;8.582;2023-05-09T12:13:52;8.02;;;6.13;;
24557;SDS011;12726;49.148;8.582;2023-05-09T12:16:43;8.20;;;5.88;;
24557;SDS011;12726;49.148;8.582;2023-05-09T12:19:30;9.00;;;6.67;;
24557;SDS011;12726;49.148;8.582;2023-05-09T12:22:16;6.43;;;5.80;;
24557;SDS011;12726;49.148;8.582;2023-05-09T12:25:04;5.35;;;4.05;;
24557;SDS011;12726;49.148;8.582;2023-05-09T12:27:50;3.40;;;3.10;;
24557;SDS011;12726;49.148;8.582;2023-05-09T12:30:37;4.40;;;3.97;;
24557;SDS011;12726;49.148;8.582;2023-05-09T12:33:22;4.20;;;3.80;;
24557;SDS011;12726;49.148;8.582;2023-05-09T12:36:10;2.45;;;2.25;;
24557;SDS011;12726;49.148;8.582;2023-05-09T12:38:57;1.60;;;1.50;;
24557;SDS011;12726;49.148;8.582;2023-05-09T12:41:43;3.08;;;1.52;;
24557;SDS011;12726;49.148;8.582;2023-05-09T12:44:29;1.02;;;0.93;;
24557;SDS011;12726;49.148;8.582;2023-05-09T12:47:15;1.20;;;1.10;;
24557;SDS011;12726;49.148;8.582;2023-05-09T12:50:01;1.23;;;1.00;;
24557;SDS011;12726;49.148;8.582;2023-05-09T12:52:50;0.75;;;0.75;;
24557;SDS011;12726;49.148;8.582;2023-05-09T12:55:37;1.40;;;1.30;;
24557;SDS011;12726;49.148;8.582;2023-05-09T12:58:27;2.30;;;2.10;;
24557;SDS011;12726;49.148;8.582;2023-05-09T13:01:13;3.08;;;2.78;;
24557;SDS011;12726;49.148;8.582;2023-05-09T13:03:59;4.65;;;3.92;;
24557;SDS011;12726;49.148;8.582;2023-05-09T13:06:46;4.82;;;4.30;;
24557;SDS011;12726;49.148;8.582;2023-05-09T13:09:34;6.03;;;5.13;;
24557;SDS011;12726;49.148;8.582;2023-05-09T13:12:22;5.25;;;4.75;;
24557;SDS011;12726;49.148;8.582;2023-05-09T13:15:09;7.13;;;4.90;;
24557;SDS011;12726;49.148;8.582;2023-05-09T13:17:55;6.68;;;4.88;;
24557;SDS011;12726;49.148;8.582;2023-05-09T13:20:40;6.95;;;3.97;;
24557;SDS011;12726;49.148;8.582;2023-05-09T13:23:26;4.88;;;4.10;;
24557;SDS011;12726;49.148;8.582;2023-05-09T13:26:12;5.72;;;4.55;;
24557;SDS011;12726;49.148;8.582;2023-05-09T13:28:58;5.30;;;4.80;;
24557;SDS011;12726;49.148;8.582;2023-05-09T13:31:43;6.28;;;4.65;;
24557;SDS011;12726;49.148;8.582;2023-05-09T13:34:29;6.50;;;3.80;;
24557;SDS011;12726;49.148;8.582;2023-05-09T13:37:14;6.65;;;5.03;;
24557;SDS011;12726;49.148;8.582;2023-05-09T13:39:59;5.28;;;4.78;;
24557;SDS011;12726;49.148;8.582;2023-05-09T13:42:46;6.32;;;4.93;;
24557;SDS011;12726;49.148;8.582;2023-05-09T13:45:32;6.10;;;5.40;;
24557;SDS011;12726;49.148;8.582;2023-05-09T13:48:17;6.07;;;5.47;;
24557;SDS011;12726;49.148;8.582;2023-05-09T13:51:03;7.13;;;5.47;;
24557;SDS011;12726;49.148;8.582;2023-05-09T13:53:50;6.85;;;6.15;;
24557;SDS011;12726;49.148;8.582;2023-05-09T13:56:35;7.90;;;6.07;;
24557;SDS011;12726;49.148;8.582;2023-05-09T13:59:22;6.00;;;5.40;;
24557;SDS011;12726;49.148;8.582;2023-05-09T14:02:07;7.00;;;6.20;;
24557;SDS011;12726;49.148;8.582;2023-05-09T14:04:53;8.60;;;6.18;;
24557;SDS011;12726;49.148;8.582;2023-05-09T14:07:39;6.78;;;6.07;;
24557;SDS011;12726;49.148;8.582;2023-05-09T14:10:25;6.53;;;5.80;;
24557;SDS011;12726;49.148;8.582;2023-05-09T14:13:10;7.38;;;5.20;;
24557;SDS011;12726;49.148;8.582;2023-05-09T14:15:59;6.72;;;5.53;;
24557;SDS011;12726;49.148;8.582;2023-05-09T14:18:44;6.65;;;5.70;;
24557;SDS011;12726;49.148;8.582;2023-05-09T14:21:29;6.35;;;5.75;;
24557;SDS011;12726;49.148;8.582;2023-05-09T14:24:15;6.80;;;6.10;;
24557;SDS011;12726;49.148;8.582;2023-05-09T14:27:00;7.03;;;6.32;;
24557;SDS011;12726;49.148;8.582;2023-05-09T14:29:46;7.80;;;6.68;;
24557;SDS011;12726;49.148;8.582;2023-05-09T14:32:33;8.32;;;6.68;;
24557;SDS011;12726;49.148;8.582;2023-05-09T14:35:18;6.75;;;6.05;;
24557;SDS011;12726;49.148;8.582;2023-05-09T14:38:04;9.60;;;5.50;;
24557;SDS011;12726;49.148;8.582;2023-05-09T14:40:49;8.27;;;6.57;;
24557;SDS011;12726;49.148;8.582;2023-05-09T14:43:34;6.78;;;6.00;;
24557;SDS011;12726;49.148;8.582;2023-05-09T14:46:20;8.00;;;5.97;;
24557;SDS011;12726;49.148;8.582;2023-05-09T14:49:08;7.65;;;5.82;;
24557;SDS011;12726;49.148;8.582;2023-05-09T14:51:53;6.95;;;5.88;;
24557;SDS011;12726;49.148;8.582;2023-05-09T14:54:39;8.20;;;5.15;;
24557;SDS011;12726;49.148;8.582;2023-05-09T14:57:24;4.40;;;4.00;;
24557;SDS011;12726;49.148;8.582;2023-05-09T15:00:10;5.28;;;4.05;;
24557;SDS011;12726;49.148;8.582;2023-05-09T15:02:57;8.63;;;5.32;;
24557;SDS011;12726;49.148;8.582;2023-05-09T15:05:43;6.53;;;5.13;;
24557;SDS011;12726;49.148;8.582;2023-05-09T15:08:29;6.45;;;5.15;;
24557;SDS011;12726;49.148;8.582;2023-05-09T15:11:14;6.80;;;4.40;;
24557;SDS011;12726;49.148;8.582;2023-05-09T15:13:59;5.35;;;4.50;;
24557;SDS011;12726;49.148;8.582;2023-05-09T15:16:45;6.25;;;4.90;;
24557;SDS011;12726;49.148;8.582;2023-05-09T15:19:30;6.20;;;4.75;;
24557;SDS011;12726;49.148;8.582;2023-05-09T15:22:17;5.32;;;4.15;;
24557;SDS011;12726;49.148;8.582;2023-05-09T15:25:03;7.65;;;4.20;;
24557;SDS011;12726;49.148;8.582;2023-05-09T15:27:49;3.88;;;3.53;;
24557;SDS011;12726;49.148;8.582;2023-05-09T15:30:35;5.93;;;3.78;;
24557;SDS011;12726;49.148;8.582;2023-05-09T15:33:23;6.45;;;3.67;;
24557;SDS011;12726;49.148;8.582;2023-05-09T15:36:09;5.20;;;4.22;;
24557;SDS011;12726;49.148;8.582;2023-05-09T15:38:56;5.20;;;3.70;;
24557;SDS011;12726;49.148;8.582;2023-05-09T15:41:41;5.05;;;3.97;;
24557;SDS011;12726;49.148;8.582;2023-05-09T15:44:27;5.63;;;4.47;;
24557;SDS011;12726;49.148;8.582;2023-05-09T15:47:12;8.40;;;4.10;;
24557;SDS011;12726;49.148;8.582;2023-05-09T15:49:57;4.63;;;4.22;;
24557;SDS011;12726;49.148;8.582;2023-05-09T15:52:43;5.18;;;3.85;;
24557;SDS011;12726;49.148;8.582;2023-05-09T15:55:30;5.18;;;4.50;;
24557;SDS011;12726;49.148;8.582;2023-05-09T15:58:15;4.00;;;3.60;;
24557;SDS011;12726;49.148;8.582;2023-05-09T16:01:03;4.97;;;3.78;;
24557;SDS011;12726;49.148;8.582;2023-05-09T16:03:50;5.55;;;3.90;;
24557;SDS011;12726;49.148;8.582;2023-05-09T16:06:36;5.68;;;4.30;;
24557;SDS011;12726;49.148;8.582;2023-05-09T16:09:21;5.38;;;3.42;;
24557;SDS011;12726;49.148;8.582;2023-05-09T16:12:08;4.57;;;4.07;;
24557;SDS011;12726;49.148;8.582;2023-05-09T16:14:53;4.82;;;4.40;;
24557;SDS011;12726;49.148;8.582;2023-05-09T16:17:38;4.20;;;3.80;;
24557;SDS011;12726;49.148;8.582;2023-05-09T16:20:24;3.67;;;3.38;;
24557;SDS011;12726;49.148;8.582;2023-05-09T16:23:09;3.47;;;3.17;;
24557;SDS011;12726;49.148;8.582;2023-05-09T16:25:55;4.25;;;3.38;;